Create Tblcommutelog Verified Points Advance Search
| # | Trip ID | Id Commuter | Trip Date | Trip Num | Current Lat | Current Lng | Delta Distance | Current Time | Activity | Activity Confidence | Current Speed | |
|---|---|---|---|---|---|---|---|---|---|---|---|---|
| 70881 | 250822_788138_16488378_0842 | 788138 | (not set) | (not set) | 39.3159876 | -76.634775 | 0 | 2025-08-22 08:42:23 | still | 100 | 0.017881570359509 | |
| 70882 | 250822_765311_16499863_0755 | 765311 | (not set) | (not set) | 38.996274796993 | -76.799492791323 | 14.5767 | 2025-08-22 08:42:23 | in_vehicle | 100 | 8.5652722022048 | |
| 70883 | 250822_780169_16483285_0831 | 780169 | (not set) | (not set) | 38.803901411673 | -77.046532238814 | 0.4109 | 2025-08-22 08:42:24 | on_foot | 100 | 0.57221025150429 | |
| 70884 | 250822_780169_16483285_0831 | 780169 | (not set) | (not set) | 38.803901411673 | -77.046532238814 | 0.4109 | 2025-08-22 08:42:24 | on_foot | 100 | 0.57221025150429 | |
| 70885 | 250822_780810_6461772_0835 | 780810 | (not set) | (not set) | 39.03670315503 | -77.058171969508 | 0.4461 | 2025-08-22 08:42:27 | on_foot | 100 | 0.68397006625122 | |
| 70886 | 250822_780810_6461772_0835 | 780810 | (not set) | (not set) | 39.03670315503 | -77.058171969508 | 0.4461 | 2025-08-22 08:42:27 | on_foot | 100 | 0.68397006625122 | |
| 70887 | 250822_766077_16507807_0833 | 766077 | (not set) | (not set) | 38.790379285918 | -77.173372746235 | 4.3151 | 2025-08-22 08:42:27 | in_vehicle | 100 | 8.7843214391088 | |
| 70888 | 250822_766077_16507807_0833 | 766077 | (not set) | (not set) | 38.790379285918 | -77.173372746235 | 4.3151 | 2025-08-22 08:42:27 | in_vehicle | 100 | 8.7843214391088 | |
| 70889 | 250822_788138_16488378_0842 | 788138 | (not set) | (not set) | 39.3159876 | -76.634775 | 0 | 2025-08-22 08:42:28 | still | 100 | 0.017881570359509 | |
| 70890 | 250822_788138_16488378_0842 | 788138 | (not set) | (not set) | 39.3159876 | -76.634775 | 0 | 2025-08-22 08:42:28 | still | 100 | 0.017881570359509 | |
| 70891 | 250822_786561_16501483_0831 | 786561 | (not set) | (not set) | 38.889838429142 | -77.001492942522 | 1.1947 | 2025-08-22 08:42:29 | in_vehicle | 100 | 3.3215016942788 | |
| 70892 | 250822_784703_16454014_0806 | 784703 | (not set) | (not set) | 38.941597068631 | -77.277696480446 | 17.3438 | 2025-08-22 08:42:29 | unknown | 100 | 12.74508927374 | |
| 70893 | 250822_765311_16499863_0755 | 765311 | (not set) | (not set) | 38.997595641889 | -76.797130521325 | 14.7331 | 2025-08-22 08:42:36 | in_vehicle | 100 | 8.775380653929 | |
| 70894 | 250822_779005_6432046_0829 | 779005 | (not set) | (not set) | 38.8833227 | -77.0222699 | 0 | 2025-08-22 08:35:50 | still | 100 | -0.44703925898772 | |
| 70895 | 250822_780856_6461772_0816 | 780856 | (not set) | (not set) | 38.904917255513 | -77.073395782441 | 5.5754 | 2025-08-22 08:42:37 | on_bicycle | 100 | 3.8758303754236 | |
| 70896 | 250822_780856_6461772_0816 | 780856 | (not set) | (not set) | 38.904917255513 | -77.073395782441 | 5.5754 | 2025-08-22 08:42:37 | on_bicycle | 100 | 3.8758303754236 | |
| 70897 | 250822_788138_16488378_0842 | 788138 | (not set) | (not set) | 39.3159876 | -76.634775 | 0 | 2025-08-22 08:42:41 | walking | 100 | 0.017881570359509 | |
| 70898 | 250822_788138_16488378_0842 | 788138 | (not set) | (not set) | 39.3159876 | -76.634775 | 0 | 2025-08-22 08:42:41 | walking | 100 | 0.017881570359509 | |
| 70899 | 250822_788138_16488378_0842 | 788138 | (not set) | (not set) | 39.3159905 | -76.6348206 | 0 | 2025-08-22 08:42:42 | walking | 100 | -0.44703925898772 | |
| 70900 | 250822_788138_16488378_0842 | 788138 | (not set) | (not set) | 39.3159905 | -76.6348206 | 0 | 2025-08-22 08:42:42 | walking | 100 | -0.44703925898772 |